Terminal Aerodrome Forecast
Issued by NWS Sioux Falls, SD

Home | Current Version | Previous Version | Text Only | Print | Product List | Glossary Off
Versions: 1 2 3 4 5 6 7 8 9 10 11 12 13 14 15 16 17 18

000
FTUS43 KFSD 241132
TAFHON
TAF
KHON 241132Z 2412/2512 15013G20KT P6SM -SHRA SCT060 BKN100
     FM241500 16013G18KT P6SM BKN110
     FM242000 14012KT P6SM SCT035 BKN100
     FM250000 10010KT P6SM SCT030 BKN100
     FM250300 09009KT P6SM BKN025
     FM250700 06007KT P6SM OVC018=

USA.gov is the U.S. government's official web portal to all federal, state and local government web resources and services.